createdAt,value
2023-03-15T00:00:31.775Z,100729.28
2023-03-15T00:03:04.300Z,100723.16
2023-03-15T00:05:37.154Z,100722.31
2023-03-15T00:08:10.703Z,100721.56
2023-03-15T00:10:45.744Z,100730.50
2023-03-15T00:13:18.431Z,100730.50
2023-03-15T00:15:54.211Z,100735.03
2023-03-15T00:18:28.612Z,100743.97
2023-03-15T00:21:01.104Z,100745.84
2023-03-15T00:23:36.127Z,100748.63
2023-03-15T00:26:08.477Z,100756.56
2023-03-15T00:28:41.795Z,100759.22
2023-03-15T00:31:18.883Z,100765.56
2023-03-15T00:33:55.416Z,100761.16
2023-03-15T00:36:32.455Z,100762.19
2023-03-15T00:39:05.708Z,100766.59
2023-03-15T00:41:39.238Z,100763.97
2023-03-15T00:44:11.887Z,100766.72
2023-03-15T00:46:44.413Z,100777.38
2023-03-15T00:49:17.049Z,100773.91
2023-03-15T00:51:49.351Z,100781.09
2023-03-15T00:54:23.859Z,100773.19
2023-03-15T00:56:56.651Z,100777.63
2023-03-15T00:59:34.939Z,100775.91
2023-03-15T01:02:08.215Z,100784.81
2023-03-15T01:04:43.139Z,100771.63
2023-03-15T01:07:16.042Z,100779.59
2023-03-15T01:09:49.814Z,100785.06
2023-03-15T01:12:22.321Z,100792.16
2023-03-15T01:14:54.702Z,100779.84
2023-03-15T01:17:29.578Z,100788.75
2023-03-15T01:20:04.348Z,100794.13
2023-03-15T01:22:36.717Z,100786.19
2023-03-15T01:25:09.611Z,100788.06
2023-03-15T01:27:41.964Z,100786.25
2023-03-15T01:30:15.576Z,100794.25
2023-03-15T01:32:48.016Z,100793.44
2023-03-15T01:35:21.038Z,100795.28
2023-03-15T01:37:53.407Z,100795.28
2023-03-15T01:40:26.022Z,100806.91
2023-03-15T01:43:04.857Z,100812.28
2023-03-15T01:46:02.104Z,100815.88
2023-03-15T01:48:44.789Z,100815.13
2023-03-15T01:51:28.423Z,100829.31
2023-03-15T01:54:13.528Z,100832.03
2023-03-15T01:57:14.185Z,100833.84
2023-03-15T01:59:52.387Z,100837.47
2023-03-15T02:02:26.135Z,100851.75
2023-03-15T02:05:09.913Z,100852.66
2023-03-15T02:07:50.041Z,100855.38
2023-03-15T02:10:49.772Z,100864.34
2023-03-15T02:13:25.417Z,100861.78
2023-03-15T02:16:00.520Z,100862.63
2023-03-15T02:18:42.108Z,100869.81
2023-03-15T02:21:45.305Z,100861.88
2023-03-15T02:24:30.066Z,100866.41
2023-03-15T02:27:03.749Z,100863.75
2023-03-15T02:29:36.553Z,100861.16
2023-03-15T02:32:09.231Z,100862.97
2023-03-15T02:34:41.706Z,100858.53
2023-03-15T02:37:14.928Z,100859.50
2023-03-15T02:39:47.753Z,100858.69
2023-03-15T02:42:20.719Z,100865.88
2023-03-15T02:44:54.986Z,100866.81
2023-03-15T02:47:32.749Z,100867.66
2023-03-15T02:50:07.764Z,100877.56
2023-03-15T02:52:40.223Z,100872.25
2023-03-15T02:55:12.894Z,100859.88
2023-03-15T02:57:46.178Z,100874.09
2023-03-15T03:00:18.819Z,100880.34
2023-03-15T03:02:51.264Z,100883.09
2023-03-15T03:05:24.103Z,100881.38
2023-03-15T03:07:56.767Z,100878.78
2023-03-15T03:10:29.761Z,100873.44
2023-03-15T03:13:03.808Z,100882.34
2023-03-15T03:15:39.549Z,100873.63
2023-03-15T03:18:12.567Z,100866.47
2023-03-15T03:20:46.208Z,100869.19
2023-03-15T03:23:18.631Z,100864.81
2023-03-15T03:25:53.960Z,100870.19
2023-03-15T03:28:29.112Z,100876.38
2023-03-15T03:31:01.524Z,100880.91
2023-03-15T03:33:34.646Z,100877.44
2023-03-15T03:36:07.338Z,100883.66
2023-03-15T03:38:42.082Z,100882.00
2023-03-15T03:41:15.356Z,100898.84
2023-03-15T03:43:47.583Z,100908.63
2023-03-15T03:46:21.363Z,100906.13
2023-03-15T03:48:57.611Z,100914.13
2023-03-15T03:51:30.833Z,100922.16
2023-03-15T03:54:03.665Z,100926.59
2023-03-15T03:56:36.140Z,100933.78
2023-03-15T03:59:08.640Z,100937.38
2023-03-15T04:01:51.343Z,100939.19
2023-03-15T04:04:26.499Z,100938.34
2023-03-15T04:06:59.653Z,100934.88
2023-03-15T04:09:38.898Z,100928.66
2023-03-15T04:12:12.436Z,100930.50
2023-03-15T04:14:47.629Z,100927.03
2023-03-15T04:17:22.172Z,100922.66
2023-03-15T04:19:54.754Z,100923.59
2023-03-15T04:22:34.908Z,100935.13
2023-03-15T04:25:27.762Z,100932.50
2023-03-15T04:28:10.782Z,100932.56
2023-03-15T04:31:02.176Z,100936.16
2023-03-15T04:34:06.703Z,100934.41
2023-03-15T04:36:59.395Z,100931.78
2023-03-15T04:39:42.837Z,100934.50
2023-03-15T04:42:37.366Z,100934.56
2023-03-15T04:45:12.842Z,100941.69
2023-03-15T04:48:23.564Z,100936.41
2023-03-15T04:51:16.769Z,100938.22
2023-03-15T04:54:09.371Z,100939.19
2023-03-15T04:57:07.881Z,100940.09
2023-03-15T05:00:10.056Z,100945.50
2023-03-15T05:03:08.268Z,100947.31
2023-03-15T05:06:11.321Z,100942.94
2023-03-15T05:09:18.610Z,100939.41
2023-03-15T05:11:56.819Z,100939.47
2023-03-15T05:14:58.554Z,100940.41
2023-03-15T05:17:41.824Z,100928.94
2023-03-15T05:20:32.760Z,100937.84
2023-03-15T05:23:24.907Z,100941.47
2023-03-15T05:26:06.466Z,100941.50
2023-03-15T05:29:15.038Z,100948.63
2023-03-15T05:32:06.103Z,100951.34
2023-03-15T05:34:58.611Z,100955.00
2023-03-15T05:37:55.868Z,100947.06
2023-03-15T05:40:48.395Z,100943.50
2023-03-15T05:43:45.498Z,100949.81
2023-03-15T05:46:38.096Z,100960.44
2023-03-15T05:49:30.147Z,100960.53
2023-03-15T05:52:23.638Z,100965.88
2023-03-15T05:55:14.443Z,100965.94
2023-03-15T05:57:59.151Z,100973.06
2023-03-15T06:00:43.798Z,100987.28
2023-03-15T06:03:31.799Z,100975.88
2023-03-15T06:06:14.058Z,100988.25
2023-03-15T06:08:47.491Z,100990.97
2023-03-15T06:11:20.055Z,101000.72
2023-03-15T06:13:52.474Z,100999.03
2023-03-15T06:16:38.092Z,101010.53
2023-03-15T06:19:10.687Z,101010.53
2023-03-15T06:21:43.227Z,101002.69
2023-03-15T06:24:27.024Z,101010.63
2023-03-15T06:26:59.616Z,101015.13
2023-03-15T06:29:32.332Z,101025.78
2023-03-15T06:32:06.393Z,101016.06
2023-03-15T06:34:41.527Z,101023.19
2023-03-15T06:37:22.795Z,101026.84
2023-03-15T06:40:08.351Z,101030.34
2023-03-15T06:42:42.353Z,101027.69
2023-03-15T06:45:17.656Z,101034.81
2023-03-15T06:47:51.660Z,101034.84
2023-03-15T06:50:26.141Z,101032.19
2023-03-15T06:53:00.715Z,101042.84
2023-03-15T06:55:33.562Z,101048.03
2023-03-15T06:58:05.956Z,101046.22
2023-03-15T07:00:38.413Z,101040.81
2023-03-15T07:03:11.474Z,101049.63
2023-03-15T07:05:45.672Z,101045.06
2023-03-15T07:08:19.628Z,101047.69
2023-03-15T07:10:52.607Z,101050.22
2023-03-15T07:13:24.908Z,101054.56
2023-03-15T07:15:57.361Z,101050.91
2023-03-15T07:18:29.855Z,101063.19
2023-03-15T07:21:04.561Z,101061.38
2023-03-15T07:23:36.924Z,101070.09
2023-03-15T07:26:09.382Z,101070.91
2023-03-15T07:28:43.833Z,101068.16
2023-03-15T07:31:16.479Z,101084.03
2023-03-15T07:33:48.992Z,101074.19
2023-03-15T07:36:22.417Z,101075.84
2023-03-15T07:38:55.641Z,101091.72
2023-03-15T07:41:29.293Z,101081.91
2023-03-15T07:44:10.978Z,101083.59
2023-03-15T07:46:43.458Z,101088.81
2023-03-15T07:49:17.638Z,101085.19
2023-03-15T07:51:50.061Z,101083.31
2023-03-15T07:54:23.099Z,101088.53
2023-03-15T07:56:56.514Z,101083.09
2023-03-15T07:59:29.708Z,101079.47
2023-03-15T08:02:03.154Z,101079.47
2023-03-15T08:04:37.043Z,101061.66
2023-03-15T08:07:11.330Z,101070.41
2023-03-15T08:09:43.849Z,101059.75
2023-03-15T08:12:16.250Z,101058.75
2023-03-15T08:14:48.657Z,101056.91
2023-03-15T08:17:21.352Z,101060.38
2023-03-15T08:19:53.778Z,101063.84
2023-03-15T08:22:26.840Z,101066.31
2023-03-15T08:24:59.493Z,101064.50
2023-03-15T08:27:32.440Z,101067.13
2023-03-15T08:30:06.118Z,101065.31
2023-03-15T08:32:40.268Z,101066.13
2023-03-15T08:35:15.808Z,101067.78
2023-03-15T08:37:52.710Z,101072.16
2023-03-15T08:40:25.159Z,101073.00
2023-03-15T08:42:58.282Z,101073.00
2023-03-15T08:45:37.481Z,101077.34
2023-03-15T08:48:16.233Z,101074.63
2023-03-15T08:50:48.987Z,101069.31
2023-03-15T08:53:21.435Z,101074.63
2023-03-15T08:55:53.815Z,101067.44
2023-03-15T08:58:26.247Z,101070.06
2023-03-15T09:00:58.616Z,101077.16
2023-03-15T09:03:34.806Z,101071.81
2023-03-15T09:06:07.707Z,101069.19
2023-03-15T09:08:40.180Z,101059.34
2023-03-15T09:11:12.498Z,101063.78
2023-03-15T09:13:44.899Z,101069.16
2023-03-15T09:16:17.456Z,101063.00
2023-03-15T09:18:49.808Z,101068.16
2023-03-15T09:21:22.218Z,101070.81
2023-03-15T09:23:54.730Z,101066.38
2023-03-15T09:26:27.454Z,101072.59
2023-03-15T09:28:59.886Z,101074.34
2023-03-15T09:31:32.693Z,101061.91
2023-03-15T09:34:06.614Z,101075.19
2023-03-15T09:36:41.649Z,101069.88
2023-03-15T09:39:14.217Z,101073.34
2023-03-15T09:41:59.087Z,101071.56
2023-03-15T09:44:56.239Z,101079.56
2023-03-15T09:47:41.348Z,101079.56
2023-03-15T09:50:22.838Z,101076.91
2023-03-15T09:53:00.244Z,101079.56
2023-03-15T09:55:37.551Z,101081.28
2023-03-15T09:58:18.833Z,101083.94
2023-03-15T10:00:55.095Z,101091.03
2023-03-15T10:03:46.253Z,101079.56
2023-03-15T10:06:46.263Z,101088.31
2023-03-15T10:09:23.002Z,101083.13
2023-03-15T10:12:15.148Z,101090.09
2023-03-15T10:15:20.640Z,101097.19
2023-03-15T10:17:59.628Z,101087.38
2023-03-15T10:20:43.945Z,101085.59
2023-03-15T10:23:47.585Z,101087.31
2023-03-15T10:26:35.521Z,101081.13
2023-03-15T10:29:17.495Z,101082.00
2023-03-15T10:31:52.812Z,101080.28
2023-03-15T10:34:27.566Z,101081.09
2023-03-15T10:37:06.385Z,101078.41
2023-03-15T10:39:39.874Z,101077.50
2023-03-15T10:42:23.576Z,101085.50
2023-03-15T10:44:56.530Z,101086.41
2023-03-15T10:47:29.048Z,101086.41
2023-03-15T10:50:01.502Z,101080.22
2023-03-15T10:52:41.477Z,101088.16
2023-03-15T10:55:22.280Z,101084.63
2023-03-15T10:58:03.426Z,101088.16
2023-03-15T11:00:39.273Z,101085.56
2023-03-15T11:03:25.196Z,101092.59
2023-03-15T11:05:59.479Z,101089.88
2023-03-15T11:08:39.058Z,101095.22
2023-03-15T11:11:11.665Z,101075.84
2023-03-15T11:13:59.885Z,101073.09
2023-03-15T11:16:37.828Z,101078.31
2023-03-15T11:19:18.516Z,101080.97
2023-03-15T11:21:51.869Z,101079.13
2023-03-15T11:24:29.142Z,101073.78
2023-03-15T11:27:08.995Z,101074.59
2023-03-15T11:29:47.741Z,101073.63
2023-03-15T11:32:24.744Z,101066.50
2023-03-15T11:35:06.260Z,101067.22
2023-03-15T11:37:46.648Z,101068.91
2023-03-15T11:40:24.013Z,101067.06
2023-03-15T11:43:09.469Z,101070.47
2023-03-15T11:45:45.064Z,101071.31
2023-03-15T11:48:50.465Z,101065.03
2023-03-15T11:51:23.057Z,101059.59
2023-03-15T11:54:11.833Z,101069.25
2023-03-15T11:56:44.770Z,101060.25
2023-03-15T11:59:32.814Z,101057.47
2023-03-15T12:02:11.433Z,101052.94
2023-03-15T12:04:49.789Z,101047.44
2023-03-15T12:07:24.496Z,101054.41
2023-03-15T12:10:18.154Z,101061.28
2023-03-15T12:12:59.419Z,101066.47
2023-03-15T12:15:37.886Z,101069.03
2023-03-15T12:18:16.913Z,101060.81
2023-03-15T12:21:07.480Z,101050.03
2023-03-15T12:23:58.206Z,101041.00
2023-03-15T12:26:46.596Z,101037.28
2023-03-15T12:29:29.580Z,101020.41
2023-03-15T12:32:01.874Z,101026.59
2023-03-15T12:34:55.169Z,101012.22
2023-03-15T12:37:39.507Z,101007.75
2023-03-15T12:40:19.120Z,101013.81
2023-03-15T12:42:54.794Z,101012.84
2023-03-15T12:45:35.726Z,101015.47
2023-03-15T12:48:13.174Z,101006.59
2023-03-15T12:50:51.073Z,101009.13
2023-03-15T12:53:38.297Z,101005.53
2023-03-15T12:56:40.516Z,101002.00
2023-03-15T12:59:20.199Z,101002.84
2023-03-15T13:01:53.061Z,101008.13
2023-03-15T13:04:28.317Z,101002.00
2023-03-15T13:07:18.451Z,101000.13
2023-03-15T13:10:02.926Z,101001.88
2023-03-15T13:12:40.995Z,100991.19
2023-03-15T13:15:24.947Z,100989.34
2023-03-15T13:17:59.274Z,100989.34
2023-03-15T13:20:57.394Z,100991.88
2023-03-15T13:23:31.851Z,100993.59
2023-03-15T13:26:23.642Z,100990.88
2023-03-15T13:29:27.441Z,100996.94
2023-03-15T13:32:11.938Z,100990.75
2023-03-15T13:34:47.000Z,100988.81
2023-03-15T13:37:31.753Z,100979.91
2023-03-15T13:40:12.757Z,100972.69
2023-03-15T13:42:45.096Z,100970.81
2023-03-15T13:45:17.622Z,100976.97
2023-03-15T13:47:50.042Z,100970.75
2023-03-15T13:50:22.764Z,100959.09
2023-03-15T13:52:56.514Z,100964.44
2023-03-15T13:55:34.020Z,100953.75
2023-03-15T13:58:09.354Z,100943.06
2023-03-15T14:00:41.977Z,100939.47
2023-03-15T14:03:22.530Z,100934.13
2023-03-15T14:05:56.779Z,100931.41
2023-03-15T14:08:38.038Z,100923.44
2023-03-15T14:11:36.232Z,100923.28
2023-03-15T14:14:23.302Z,100926.84
2023-03-15T14:17:05.218Z,100919.69
2023-03-15T14:19:38.278Z,100918.78
2023-03-15T14:22:17.925Z,100918.72
2023-03-15T14:24:52.597Z,100919.50
2023-03-15T14:27:29.891Z,100920.38
2023-03-15T14:30:03.292Z,100914.97
2023-03-15T14:32:38.765Z,100906.09
2023-03-15T14:35:22.835Z,100898.06
2023-03-15T14:38:04.207Z,100903.41
2023-03-15T14:40:38.830Z,100901.59
2023-03-15T14:43:11.457Z,100900.81
2023-03-15T14:45:48.054Z,100899.94
2023-03-15T14:48:38.822Z,100898.19
2023-03-15T14:51:16.171Z,100898.19
2023-03-15T14:53:51.657Z,100892.06
2023-03-15T14:56:25.177Z,100900.94
2023-03-15T14:58:57.722Z,100890.31
2023-03-15T15:01:30.371Z,100902.03
2023-03-15T15:04:03.483Z,100900.28
2023-03-15T15:06:38.015Z,100895.00
2023-03-15T15:09:10.986Z,100888.84
2023-03-15T15:11:43.422Z,100887.91
2023-03-15T15:14:16.499Z,100892.44
2023-03-15T15:16:49.462Z,100887.16
2023-03-15T15:19:23.317Z,100889.09
2023-03-15T15:21:56.458Z,100871.34
2023-03-15T15:24:29.175Z,100867.00
2023-03-15T15:27:02.405Z,100867.94
2023-03-15T15:29:34.973Z,100869.75
2023-03-15T15:32:07.755Z,100866.28
2023-03-15T15:34:42.587Z,100863.63
2023-03-15T15:37:16.275Z,100860.13
2023-03-15T15:39:50.055Z,100869.94
2023-03-15T15:42:22.515Z,100862.84
2023-03-15T15:44:55.316Z,100854.91
2023-03-15T15:47:35.399Z,100854.03
2023-03-15T15:50:12.585Z,100861.13
2023-03-15T15:52:49.497Z,100861.19
2023-03-15T15:55:24.740Z,100852.38
2023-03-15T15:57:57.634Z,100849.72
2023-03-15T16:00:30.713Z,100850.63
2023-03-15T16:03:03.404Z,100850.63
2023-03-15T16:05:37.205Z,100852.50
2023-03-15T16:08:19.402Z,100848.09
2023-03-15T16:10:51.933Z,100851.69
2023-03-15T16:13:24.462Z,100849.16
2023-03-15T16:15:56.978Z,100847.34
2023-03-15T16:18:29.393Z,100842.16
2023-03-15T16:21:01.863Z,100848.47
2023-03-15T16:23:34.444Z,100837.78
2023-03-15T16:26:08.147Z,100842.28
2023-03-15T16:28:40.819Z,100837.94
2023-03-15T16:31:13.803Z,100836.19
2023-03-15T16:33:46.620Z,100831.84
2023-03-15T16:36:22.116Z,100827.41
2023-03-15T16:38:55.912Z,100819.56
2023-03-15T16:41:29.729Z,100828.38
2023-03-15T16:44:03.204Z,100826.50
2023-03-15T16:46:35.904Z,100820.31
2023-03-15T16:49:09.096Z,100830.06
2023-03-15T16:51:53.089Z,100819.31
2023-03-15T16:54:40.331Z,100827.28
2023-03-15T16:57:22.850Z,100819.19
2023-03-15T16:59:56.385Z,100821.78
2023-03-15T17:02:34.196Z,100823.53
2023-03-15T17:05:07.593Z,100816.31
2023-03-15T17:07:40.277Z,100808.19
2023-03-15T17:16:06.744Z,100799.13
2023-03-15T17:18:47.963Z,100806.13
2023-03-15T17:21:24.610Z,100800.78
2023-03-15T17:23:58.482Z,100799.78
2023-03-15T17:26:35.342Z,100796.16
2023-03-15T17:29:08.555Z,100796.16
2023-03-15T17:31:41.200Z,100795.25
2023-03-15T17:34:13.873Z,100790.69
2023-03-15T17:36:46.335Z,100786.25
2023-03-15T17:39:20.711Z,100780.03
2023-03-15T17:41:53.260Z,100783.50
2023-03-15T17:44:25.882Z,100775.56
2023-03-15T17:47:00.179Z,100773.81
2023-03-15T17:49:33.817Z,100772.91
2023-03-15T17:52:15.596Z,100771.09
2023-03-15T17:54:48.333Z,100773.75
2023-03-15T17:57:22.440Z,100775.50
2023-03-15T17:59:56.953Z,100772.84
2023-03-15T18:02:32.614Z,100777.22
2023-03-15T18:05:16.914Z,100767.50
2023-03-15T18:07:58.536Z,100756.81
2023-03-15T18:10:38.323Z,100772.78
2023-03-15T18:13:18.032Z,100765.63
2023-03-15T18:15:51.611Z,100757.53
2023-03-15T18:18:27.463Z,100762.88
2023-03-15T18:21:01.233Z,100776.16
2023-03-15T18:23:33.838Z,100777.88
2023-03-15T18:26:08.981Z,100780.56
2023-03-15T18:28:42.600Z,100768.09
2023-03-15T18:31:25.910Z,100762.75
2023-03-15T18:33:59.421Z,100761.88
2023-03-15T18:36:33.078Z,100774.28
2023-03-15T18:39:06.477Z,100766.28
2023-03-15T18:41:39.035Z,100768.94
2023-03-15T18:44:12.644Z,100766.28
2023-03-15T18:46:45.422Z,100770.69
2023-03-15T18:49:17.925Z,100781.38
2023-03-15T18:51:55.284Z,100763.59
2023-03-15T18:54:27.758Z,100768.09
2023-03-15T18:57:00.812Z,100763.59
2023-03-15T18:59:33.207Z,100753.84
2023-03-15T19:02:06.231Z,100754.75
2023-03-15T19:04:38.724Z,100749.47
2023-03-15T19:07:11.103Z,100745.84
2023-03-15T19:09:44.760Z,100747.66
2023-03-15T19:12:17.285Z,100742.38
2023-03-15T19:14:49.685Z,100733.44
2023-03-15T19:17:22.306Z,100723.69
2023-03-15T19:19:54.709Z,100722.84
2023-03-15T19:22:30.968Z,100721.03
2023-03-15T19:25:04.313Z,100720.16
2023-03-15T19:27:36.578Z,100718.41
2023-03-15T19:30:18.627Z,100720.22
2023-03-15T19:32:51.209Z,100711.38
2023-03-15T19:35:23.971Z,100702.47
2023-03-15T19:37:57.148Z,100696.28
2023-03-15T19:40:29.630Z,100693.66
2023-03-15T19:43:02.167Z,100699.78
2023-03-15T19:45:34.570Z,100691.84
2023-03-15T19:48:07.558Z,100688.31
2023-03-15T19:50:40.251Z,100696.34
2023-03-15T19:53:12.943Z,100685.66
2023-03-15T19:55:45.410Z,100682.06
2023-03-15T19:58:17.982Z,100677.59
2023-03-15T20:00:52.152Z,100681.09
2023-03-15T20:03:25.809Z,100678.38
2023-03-15T20:06:07.005Z,100679.22
2023-03-15T20:08:39.683Z,100685.38
2023-03-15T20:11:20.085Z,100681.75
2023-03-15T20:13:53.076Z,100676.34
2023-03-15T20:16:25.767Z,100670.94
2023-03-15T20:18:58.380Z,100662.94
2023-03-15T20:21:30.815Z,100667.34
2023-03-15T20:24:07.102Z,100661.06
2023-03-15T20:26:39.635Z,100659.22
2023-03-15T20:29:12.240Z,100659.22
2023-03-15T20:31:45.402Z,100663.59
2023-03-15T20:34:17.760Z,100661.88
2023-03-15T20:36:52.809Z,100658.31
2023-03-15T20:39:25.903Z,100660.06
2023-03-15T20:41:58.306Z,100661.88
2023-03-15T20:44:32.248Z,100658.25
2023-03-15T20:47:04.840Z,100651.19
2023-03-15T20:49:37.387Z,100647.56
2023-03-15T20:52:10.077Z,100651.25
2023-03-15T20:54:42.512Z,100654.72
2023-03-15T20:57:14.786Z,100659.28
2023-03-15T20:59:47.476Z,100650.31
2023-03-15T21:02:22.481Z,100652.06
2023-03-15T21:04:54.981Z,100643.13
2023-03-15T21:07:27.366Z,100643.13
2023-03-15T21:10:00.007Z,100635.97
2023-03-15T21:12:32.906Z,100641.22
2023-03-15T21:15:06.385Z,100628.72
2023-03-15T21:17:38.823Z,100625.13
2023-03-15T21:20:13.148Z,100614.47
2023-03-15T21:22:47.080Z,100620.59
2023-03-15T21:25:20.970Z,100603.72
2023-03-15T21:27:53.841Z,100599.22
2023-03-15T21:30:26.964Z,100596.56
2023-03-15T21:32:59.494Z,100600.00
2023-03-15T21:35:32.313Z,100594.66
2023-03-15T21:38:06.799Z,100592.88
2023-03-15T21:40:41.628Z,100594.59
2023-03-15T21:43:14.727Z,100579.53
2023-03-15T21:45:48.347Z,100578.50
2023-03-15T21:48:24.807Z,100574.03
2023-03-15T21:50:58.850Z,100573.94
2023-03-15T21:53:43.651Z,100572.22
2023-03-15T21:56:16.534Z,100580.16
2023-03-15T21:58:49.844Z,100583.75
2023-03-15T22:01:24.443Z,100587.28
2023-03-15T22:03:59.844Z,100585.44
2023-03-15T22:06:33.348Z,100582.78
2023-03-15T22:09:10.067Z,100572.09
2023-03-15T22:11:42.538Z,100574.69
2023-03-15T22:14:15.597Z,100573.78
2023-03-15T22:16:48.142Z,100561.34
2023-03-15T22:19:21.216Z,100560.38
2023-03-15T22:21:53.608Z,100559.50
2023-03-15T22:24:26.196Z,100555.91
2023-03-15T22:26:58.722Z,100554.97
2023-03-15T22:29:32.690Z,100547.81
2023-03-15T22:32:07.271Z,100551.34
2023-03-15T22:34:40.483Z,100543.34
2023-03-15T22:37:16.345Z,100544.28
2023-03-15T22:39:49.181Z,100536.25
2023-03-15T22:42:22.887Z,100542.50
2023-03-15T22:44:55.606Z,100527.31
2023-03-15T22:47:30.443Z,100526.47
2023-03-15T22:50:02.837Z,100518.53
2023-03-15T22:52:35.392Z,100514.03
2023-03-15T22:55:09.570Z,100507.84
2023-03-15T22:57:42.101Z,100509.53
2023-03-15T23:00:17.131Z,100513.19
2023-03-15T23:02:49.656Z,100502.50
2023-03-15T23:05:22.085Z,100499.91
2023-03-15T23:07:55.674Z,100504.34
2023-03-15T23:10:28.462Z,100501.69
2023-03-15T23:13:01.135Z,100502.56
2023-03-15T23:15:35.035Z,100494.56
2023-03-15T23:18:08.392Z,100502.66
2023-03-15T23:20:42.274Z,100491.06
2023-03-15T23:23:14.745Z,100484.88
2023-03-15T23:25:47.535Z,100481.34
2023-03-15T23:28:21.943Z,100483.13
2023-03-15T23:30:54.367Z,100470.88
2023-03-15T23:33:27.091Z,100481.44
2023-03-15T23:36:00.455Z,100476.09
2023-03-15T23:38:37.470Z,100458.31
2023-03-15T23:41:10.255Z,100463.66
2023-03-15T23:43:43.637Z,100464.63
2023-03-15T23:46:16.136Z,100465.56
2023-03-15T23:48:50.534Z,100451.25
2023-03-15T23:51:23.333Z,100449.53
2023-03-15T23:53:56.103Z,100440.66
2023-03-15T23:56:30.657Z,100441.66
2023-03-15T23:59:03.060Z,100434.50
